createdAt,value
2023-03-29T00:02:20.203Z,14.90
2023-03-29T00:04:47.764Z,8.40
2023-03-29T00:07:14.946Z,10.88
2023-03-29T00:09:45.101Z,11.02
2023-03-29T00:12:15.611Z,10.07
2023-03-29T00:14:43.086Z,8.18
2023-03-29T00:17:10.524Z,8.05
2023-03-29T00:19:38.075Z,5.15
2023-03-29T00:22:15.192Z,10.48
2023-03-29T00:27:29.863Z,7.78
2023-03-29T00:30:09.904Z,9.05
2023-03-29T00:32:42.133Z,8.35
2023-03-29T00:35:15.380Z,9.88
2023-03-29T00:38:08.287Z,9.57
2023-03-29T00:44:40.334Z,8.60
2023-03-29T00:47:20.422Z,8.00
2023-03-29T00:50:12.695Z,8.45
2023-03-29T00:52:51.954Z,7.88
2023-03-29T00:56:02.025Z,8.95
2023-03-29T00:59:18.956Z,7.35
2023-03-29T01:02:02.362Z,7.15
2023-03-29T01:04:51.459Z,7.43
2023-03-29T01:07:35.642Z,6.15
2023-03-29T01:10:21.135Z,8.05
2023-03-29T01:12:56.742Z,5.33
2023-03-29T01:15:31.203Z,6.15
2023-03-29T01:18:02.374Z,6.20
2023-03-29T01:20:39.589Z,6.45
2023-03-29T01:23:30.856Z,5.80
2023-03-29T01:26:15.145Z,7.22
2023-03-29T01:29:08.112Z,6.68
2023-03-29T01:31:50.651Z,5.72
2023-03-29T01:34:53.351Z,6.32
2023-03-29T01:37:28.017Z,5.85
2023-03-29T01:39:55.265Z,5.55
2023-03-29T01:42:58.070Z,5.03
2023-03-29T01:45:28.968Z,5.28
2023-03-29T01:48:07.580Z,5.65
2023-03-29T01:50:42.228Z,5.60
2023-03-29T01:53:37.442Z,6.60
2023-03-29T01:56:29.389Z,6.05
2023-03-29T01:59:07.367Z,5.38
2023-03-29T02:01:49.689Z,6.38
2023-03-29T02:04:31.726Z,6.13
2023-03-29T02:07:01.748Z,7.88
2023-03-29T02:09:30.922Z,7.15
2023-03-29T02:12:01.228Z,7.05
2023-03-29T02:14:32.990Z,6.72
2023-03-29T02:17:20.557Z,6.32
2023-03-29T02:19:54.018Z,5.82
2023-03-29T02:22:33.624Z,7.82
2023-03-29T02:25:04.905Z,5.97
2023-03-29T02:27:32.212Z,9.35
2023-03-29T02:29:59.811Z,7.35
2023-03-29T02:32:36.508Z,6.28
2023-03-29T02:35:14.531Z,6.75
2023-03-29T02:37:51.971Z,5.70
2023-03-29T02:40:21.482Z,4.90
2023-03-29T02:43:00.080Z,5.55
2023-03-29T02:45:33.333Z,7.35
2023-03-29T02:48:22.964Z,7.55
2023-03-29T02:54:15.617Z,6.78
2023-03-29T02:56:45.321Z,6.65
2023-03-29T02:59:14.454Z,6.35
2023-03-29T03:01:45.265Z,6.38
2023-03-29T03:04:15.496Z,9.27
2023-03-29T03:06:43.039Z,10.00
2023-03-29T03:09:10.991Z,9.35
2023-03-29T03:11:41.374Z,11.05
2023-03-29T03:14:09.467Z,9.38
2023-03-29T03:16:37.460Z,10.25
2023-03-29T03:19:05.438Z,11.00
2023-03-29T03:21:33.718Z,8.60
2023-03-29T03:24:00.964Z,7.95
2023-03-29T03:26:30.331Z,6.60
2023-03-29T03:28:58.423Z,6.47
2023-03-29T03:31:44.950Z,7.13
2023-03-29T03:34:35.145Z,6.90
2023-03-29T03:37:03.191Z,8.02
2023-03-29T03:39:33.718Z,8.60
2023-03-29T03:42:07.845Z,9.55
2023-03-29T03:44:39.605Z,11.13
2023-03-29T03:47:20.535Z,10.15
2023-03-29T03:49:47.784Z,11.32
2023-03-29T03:52:18.531Z,11.13
2023-03-29T03:54:48.280Z,9.68
2023-03-29T03:57:40.004Z,9.63
2023-03-29T04:00:25.170Z,9.30
2023-03-29T04:03:11.940Z,10.20
2023-03-29T04:05:43.940Z,10.32
2023-03-29T04:08:17.952Z,9.18
2023-03-29T04:11:19.989Z,14.95
2023-03-29T04:13:51.158Z,17.13
2023-03-29T04:19:49.754Z,48.10
2023-03-29T04:22:42.819Z,34.55
2023-03-29T04:25:40.837Z,33.13
2023-03-29T04:28:38.403Z,29.25
2023-03-29T04:31:15.123Z,30.98
2023-03-29T04:34:02.957Z,24.67
2023-03-29T04:36:31.116Z,23.85
2023-03-29T04:39:01.876Z,20.98
2023-03-29T04:41:30.565Z,9.68
2023-03-29T04:44:09.673Z,9.80
2023-03-29T04:46:38.997Z,7.97
2023-03-29T04:49:06.898Z,9.85
2023-03-29T04:51:38.150Z,8.38
2023-03-29T04:54:06.046Z,10.25
2023-03-29T04:56:47.422Z,8.77
2023-03-29T04:59:29.039Z,9.63
2023-03-29T05:01:56.779Z,10.52
2023-03-29T05:04:24.877Z,17.25
2023-03-29T05:07:04.713Z,21.90
2023-03-29T05:09:34.327Z,18.98
2023-03-29T05:12:04.070Z,17.85
2023-03-29T05:14:40.430Z,23.88
2023-03-29T05:17:08.309Z,25.30
2023-03-29T05:19:37.769Z,19.98
2023-03-29T05:22:05.424Z,18.40
2023-03-29T05:24:32.842Z,17.33
2023-03-29T05:27:06.223Z,18.02
2023-03-29T05:29:36.853Z,14.23
2023-03-29T05:32:38.378Z,14.25
2023-03-29T05:35:08.403Z,15.63
2023-03-29T05:37:36.076Z,14.43
2023-03-29T05:40:09.289Z,14.65
2023-03-29T05:42:54.664Z,14.00
2023-03-29T05:45:25.771Z,15.27
2023-03-29T05:47:53.719Z,15.63
2023-03-29T05:50:21.093Z,15.32
2023-03-29T05:52:50.275Z,16.15
2023-03-29T05:55:18.691Z,15.65
2023-03-29T05:58:14.198Z,13.95
2023-03-29T06:00:43.102Z,12.95
2023-03-29T06:03:36.952Z,14.45
2023-03-29T06:06:10.415Z,17.13
2023-03-29T06:08:38.469Z,13.13
2023-03-29T06:11:30.722Z,16.70
2023-03-29T06:14:10.566Z,17.50
2023-03-29T06:16:47.276Z,16.42
2023-03-29T06:19:16.281Z,17.00
2023-03-29T06:21:46.489Z,14.90
2023-03-29T06:24:19.349Z,11.77
2023-03-29T06:26:53.923Z,11.23
2023-03-29T06:29:22.452Z,7.40
2023-03-29T06:31:51.133Z,6.13
2023-03-29T06:34:38.663Z,7.00
2023-03-29T06:37:23.877Z,6.13
2023-03-29T06:40:01.272Z,8.20
2023-03-29T06:42:35.887Z,12.45
2023-03-29T06:45:24.335Z,8.63
2023-03-29T06:47:53.617Z,8.02
2023-03-29T06:50:22.570Z,10.77
2023-03-29T06:53:09.002Z,7.75
2023-03-29T06:56:06.655Z,6.05
2023-03-29T06:58:45.476Z,6.30
2023-03-29T07:01:29.271Z,5.78
2023-03-29T07:04:09.141Z,6.32
2023-03-29T07:07:03.626Z,6.10
2023-03-29T07:09:33.667Z,5.88
2023-03-29T07:12:19.062Z,6.15
2023-03-29T07:14:46.858Z,6.13
2023-03-29T07:17:23.719Z,6.30
2023-03-29T07:19:53.747Z,6.43
2023-03-29T07:22:51.578Z,6.50
2023-03-29T07:25:23.781Z,7.68
2023-03-29T07:27:54.777Z,6.10
2023-03-29T07:30:25.444Z,5.25
2023-03-29T07:32:56.277Z,4.78
2023-03-29T07:35:48.060Z,5.60
2023-03-29T07:38:16.096Z,5.43
2023-03-29T07:40:48.827Z,4.25
2023-03-29T07:43:43.178Z,4.47
2023-03-29T07:46:12.107Z,5.47
2023-03-29T07:48:40.373Z,4.78
2023-03-29T07:51:10.341Z,4.50
2023-03-29T08:04:32.003Z,5.15
2023-03-29T08:07:18.829Z,5.65
2023-03-29T08:10:04.501Z,5.95
2023-03-29T08:13:07.456Z,5.72
2023-03-29T08:16:07.174Z,4.97
2023-03-29T08:18:39.687Z,5.22
2023-03-29T08:21:07.504Z,5.68
2023-03-29T08:23:35.125Z,5.95
2023-03-29T08:26:09.506Z,5.95
2023-03-29T08:28:39.356Z,5.53
2023-03-29T08:31:10.059Z,5.75
2023-03-29T08:33:42.641Z,7.32
2023-03-29T08:36:30.434Z,6.20
2023-03-29T08:39:03.588Z,7.00
2023-03-29T08:41:58.002Z,6.07
2023-03-29T08:44:26.783Z,6.47
2023-03-29T08:47:36.396Z,6.93
2023-03-29T08:50:04.619Z,5.40
2023-03-29T08:52:54.558Z,5.88
2023-03-29T08:55:51.926Z,6.40
2023-03-29T08:58:43.634Z,6.55
2023-03-29T09:01:11.784Z,5.63
2023-03-29T09:04:10.062Z,8.40
2023-03-29T09:06:55.809Z,6.20
2023-03-29T09:09:36.581Z,7.65
2023-03-29T09:12:12.369Z,7.32
2023-03-29T09:14:50.031Z,6.32
2023-03-29T09:17:25.227Z,6.13
2023-03-29T09:19:59.228Z,6.18
2023-03-29T09:22:40.089Z,6.55
2023-03-29T09:25:21.546Z,5.25
2023-03-29T09:28:15.575Z,5.20
2023-03-29T09:31:08.079Z,6.05
2023-03-29T09:33:47.167Z,5.60
2023-03-29T09:36:18.210Z,5.35
2023-03-29T09:38:51.190Z,5.47
2023-03-29T09:41:45.712Z,7.55
2023-03-29T09:44:30.329Z,4.90
2023-03-29T09:47:11.849Z,5.43
2023-03-29T09:49:45.271Z,4.78
2023-03-29T09:52:16.893Z,4.50
2023-03-29T09:54:56.400Z,4.63
2023-03-29T09:57:53.017Z,3.35
2023-03-29T10:00:21.708Z,3.67
2023-03-29T10:02:53.943Z,4.35
2023-03-29T10:05:32.777Z,3.10
2023-03-29T10:08:01.742Z,2.78
2023-03-29T10:10:33.603Z,1.77
2023-03-29T10:13:13.546Z,2.00
2023-03-29T10:15:41.092Z,2.42
2023-03-29T10:18:14.252Z,1.98
2023-03-29T10:20:41.834Z,2.42
2023-03-29T10:23:16.586Z,1.98
2023-03-29T10:25:44.699Z,3.17
2023-03-29T10:28:16.518Z,6.25
2023-03-29T10:30:48.968Z,11.13
2023-03-29T10:33:19.692Z,2.65
2023-03-29T10:35:48.807Z,2.15
2023-03-29T10:38:23.252Z,1.88
2023-03-29T10:40:53.396Z,1.50
2023-03-29T10:43:29.796Z,1.80
2023-03-29T10:46:11.833Z,2.58
2023-03-29T10:48:40.675Z,2.58
2023-03-29T10:51:09.167Z,2.50
2023-03-29T10:53:46.799Z,2.05
2023-03-29T10:56:21.402Z,2.60
2023-03-29T10:59:00.702Z,2.40
2023-03-29T11:01:51.900Z,2.55
2023-03-29T11:04:28.745Z,3.05
2023-03-29T11:07:16.796Z,3.50
2023-03-29T11:09:59.421Z,3.78
2023-03-29T11:12:35.234Z,2.30
2023-03-29T11:15:29.564Z,2.67
2023-03-29T11:18:06.234Z,1.33
2023-03-29T11:20:55.025Z,1.80
2023-03-29T11:23:56.174Z,1.40
2023-03-29T11:27:42.102Z,2.30
2023-03-29T11:30:46.275Z,2.40
2023-03-29T11:33:31.430Z,1.55
2023-03-29T11:36:25.672Z,1.35
2023-03-29T11:39:12.183Z,3.50
2023-03-29T11:41:45.142Z,3.00
2023-03-29T11:44:27.512Z,6.25
2023-03-29T11:47:19.095Z,5.80
2023-03-29T11:49:57.807Z,2.25
2023-03-29T11:52:34.310Z,2.05
2023-03-29T11:55:07.516Z,2.95
2023-03-29T11:57:40.182Z,3.55
2023-03-29T12:00:12.857Z,1.77
2023-03-29T12:02:48.614Z,3.42
2023-03-29T12:05:36.222Z,1.95
2023-03-29T12:08:07.581Z,2.15
2023-03-29T12:10:48.311Z,2.53
2023-03-29T12:13:22.844Z,2.65
2023-03-29T12:15:58.915Z,2.78
2023-03-29T12:18:43.326Z,3.42
2023-03-29T12:21:23.779Z,2.45
2023-03-29T12:23:53.303Z,2.67
2023-03-29T12:26:34.290Z,2.28
2023-03-29T12:29:20.211Z,1.85
2023-03-29T12:32:06.516Z,2.30
2023-03-29T12:35:06.830Z,2.17
2023-03-29T12:38:19.435Z,2.58
2023-03-29T12:41:26.286Z,3.50
2023-03-29T12:44:15.484Z,3.50
2023-03-29T12:46:59.529Z,5.80
2023-03-29T12:49:34.265Z,3.22
2023-03-29T12:52:07.389Z,2.40
2023-03-29T12:54:34.794Z,1.90
2023-03-29T12:57:21.496Z,2.15
2023-03-29T13:02:18.221Z,2.22
2023-03-29T13:05:01.538Z,2.65
2023-03-29T13:07:33.768Z,2.15
2023-03-29T13:10:05.476Z,2.55
2023-03-29T13:12:43.563Z,2.65
2023-03-29T13:15:19.737Z,2.67
2023-03-29T13:17:59.657Z,2.67
2023-03-29T13:20:39.592Z,2.20
2023-03-29T13:23:46.066Z,1.73
2023-03-29T13:26:57.768Z,1.60
2023-03-29T13:29:49.505Z,1.70
2023-03-29T13:32:28.736Z,2.30
2023-03-29T13:35:08.159Z,1.95
2023-03-29T13:38:18.273Z,2.72
2023-03-29T13:40:58.060Z,2.03
2023-03-29T13:43:52.084Z,2.20
2023-03-29T13:46:25.683Z,2.05
2023-03-29T13:49:14.528Z,3.78
2023-03-29T13:52:00.368Z,2.58
2023-03-29T13:54:36.763Z,2.13
2023-03-29T13:57:23.849Z,1.98
2023-03-29T14:00:12.151Z,1.70
2023-03-29T14:02:53.951Z,4.88
2023-03-29T14:05:26.402Z,1.98
2023-03-29T14:07:55.019Z,3.47
2023-03-29T14:10:40.048Z,2.63
2023-03-29T14:13:12.869Z,3.40
2023-03-29T14:15:47.898Z,2.92
2023-03-29T14:18:19.289Z,4.45
2023-03-29T14:20:49.350Z,3.47
2023-03-29T14:23:22.821Z,2.58
2023-03-29T14:25:50.667Z,9.38
2023-03-29T14:28:27.280Z,2.75
2023-03-29T14:30:56.362Z,4.32
2023-03-29T14:33:34.574Z,3.67
2023-03-29T14:36:06.829Z,3.80
2023-03-29T14:38:37.021Z,3.60
2023-03-29T14:41:04.526Z,3.85
2023-03-29T14:43:32.455Z,7.10
2023-03-29T14:46:05.305Z,18.05
2023-03-29T14:48:34.311Z,6.55
2023-03-29T14:51:02.108Z,4.88
2023-03-29T14:53:32.724Z,5.75
2023-03-29T14:56:02.392Z,7.35
2023-03-29T14:58:35.602Z,6.45
2023-03-29T15:01:19.110Z,6.57
2023-03-29T15:04:04.933Z,5.45
2023-03-29T15:06:38.097Z,5.75
2023-03-29T15:09:06.925Z,4.80
2023-03-29T15:11:36.111Z,4.70
2023-03-29T15:14:09.454Z,10.88
2023-03-29T15:16:43.921Z,8.57
2023-03-29T15:19:18.572Z,7.95
2023-03-29T15:21:49.221Z,8.75
2023-03-29T15:24:34.347Z,13.85
2023-03-29T15:27:19.818Z,4.53
2023-03-29T15:29:49.102Z,7.53
2023-03-29T15:32:25.264Z,6.85
2023-03-29T15:35:05.397Z,5.45
2023-03-29T15:37:33.067Z,8.95
2023-03-29T15:40:05.783Z,11.38
2023-03-29T15:42:34.758Z,7.93
2023-03-29T15:45:05.139Z,7.40
2023-03-29T15:47:32.681Z,6.88
2023-03-29T15:50:00.226Z,8.27
2023-03-29T15:52:28.217Z,6.60
2023-03-29T15:54:56.069Z,4.00
2023-03-29T15:57:23.591Z,7.80
2023-03-29T15:59:51.339Z,5.18
2023-03-29T16:02:23.938Z,4.18
2023-03-29T16:04:51.912Z,5.88
2023-03-29T16:07:21.087Z,5.97
2023-03-29T16:09:48.713Z,5.97
2023-03-29T16:12:16.545Z,7.68
2023-03-29T16:14:44.228Z,8.27
2023-03-29T16:17:14.973Z,5.25
2023-03-29T16:19:42.586Z,5.57
2023-03-29T16:22:10.081Z,6.18
2023-03-29T16:24:37.903Z,5.07
2023-03-29T16:27:05.272Z,13.57
2023-03-29T16:29:32.966Z,5.70
2023-03-29T16:32:00.829Z,7.00
2023-03-29T16:34:28.502Z,3.30
2023-03-29T16:36:55.951Z,3.15
2023-03-29T16:39:23.559Z,4.75
2023-03-29T16:41:50.986Z,4.40
2023-03-29T16:44:23.929Z,21.63
2023-03-29T16:46:57.659Z,8.27
2023-03-29T16:49:25.429Z,44.15
2023-03-29T16:51:52.810Z,15.65
2023-03-29T16:54:20.657Z,126.40
2023-03-29T16:56:48.438Z,54.03
2023-03-29T16:59:16.761Z,37.17
2023-03-29T17:01:44.575Z,15.38
2023-03-29T17:04:12.316Z,9.23
2023-03-29T17:06:39.690Z,12.43
2023-03-29T17:09:07.520Z,15.20
2023-03-29T17:11:35.052Z,25.00
2023-03-29T17:14:03.417Z,26.15
2023-03-29T17:16:30.933Z,28.40
2023-03-29T17:19:00.697Z,37.13
2023-03-29T17:21:29.718Z,42.30
2023-03-29T17:23:57.950Z,42.42
2023-03-29T17:26:29.922Z,32.30
2023-03-29T17:28:57.686Z,28.75
2023-03-29T17:31:24.979Z,32.38
2023-03-29T17:33:53.015Z,30.75
2023-03-29T17:36:24.233Z,30.00
2023-03-29T17:38:52.210Z,35.58
2023-03-29T17:41:19.567Z,39.15
2023-03-29T17:43:48.208Z,44.22
2023-03-29T17:46:17.007Z,47.30
2023-03-29T17:48:46.379Z,40.20
2023-03-29T17:51:13.811Z,40.63
2023-03-29T17:53:41.403Z,40.13
2023-03-29T17:56:09.491Z,43.63
2023-03-29T17:58:37.299Z,42.40
2023-03-29T18:01:12.347Z,38.22
2023-03-29T18:03:40.091Z,34.47
2023-03-29T18:06:08.441Z,34.28
2023-03-29T18:08:44.910Z,36.10
2023-03-29T18:11:25.423Z,59.10
2023-03-29T18:13:55.247Z,56.22
2023-03-29T18:16:23.886Z,44.17
2023-03-29T18:18:52.391Z,38.25
2023-03-29T18:21:19.926Z,38.00
2023-03-29T18:23:48.838Z,50.80
2023-03-29T18:26:17.479Z,54.40
2023-03-29T18:28:49.045Z,54.65
2023-03-29T18:31:20.170Z,47.67
2023-03-29T18:33:55.047Z,42.08
2023-03-29T18:36:22.966Z,31.33
2023-03-29T18:38:58.158Z,32.72
2023-03-29T18:41:26.157Z,116.15
2023-03-29T18:43:57.470Z,92.78
2023-03-29T18:46:25.996Z,51.72
2023-03-29T18:48:57.744Z,41.97
2023-03-29T18:51:30.751Z,47.45
2023-03-29T18:53:59.788Z,54.90
2023-03-29T18:56:28.147Z,61.45
2023-03-29T18:58:56.205Z,63.05
2023-03-29T19:01:24.114Z,83.80
2023-03-29T19:04:01.156Z,74.05
2023-03-29T19:06:32.626Z,72.05
2023-03-29T19:09:05.365Z,73.03
2023-03-29T19:11:33.509Z,77.85
2023-03-29T19:14:01.428Z,83.65
2023-03-29T19:16:29.292Z,87.32
2023-03-29T19:18:59.756Z,87.68
2023-03-29T19:21:31.849Z,78.97
2023-03-29T19:24:01.094Z,121.68
2023-03-29T19:26:33.513Z,174.82
2023-03-29T19:29:01.311Z,151.13
2023-03-29T19:31:28.627Z,139.88
2023-03-29T19:33:56.333Z,135.38
2023-03-29T19:36:24.981Z,114.57
2023-03-29T19:38:54.259Z,127.63
2023-03-29T19:41:22.245Z,130.70
2023-03-29T19:43:49.856Z,121.68
2023-03-29T19:46:17.079Z,116.03
2023-03-29T19:48:44.846Z,111.47
2023-03-29T19:51:12.423Z,115.47
2023-03-29T19:53:41.754Z,112.60
2023-03-29T19:56:11.141Z,117.40
2023-03-29T19:58:38.805Z,113.90
2023-03-29T20:01:06.216Z,119.68
2023-03-29T20:03:34.373Z,124.60
2023-03-29T20:06:02.638Z,133.60
2023-03-29T20:08:30.764Z,133.68
2023-03-29T20:11:03.904Z,129.57
2023-03-29T20:16:06.689Z,129.43
2023-03-29T20:18:34.444Z,121.50
2023-03-29T20:21:02.097Z,94.10
2023-03-29T20:23:30.138Z,89.90
2023-03-29T20:25:58.105Z,89.50
2023-03-29T20:28:26.086Z,105.15
2023-03-29T20:30:53.805Z,104.75
2023-03-29T20:33:21.865Z,95.05
2023-03-29T20:35:49.614Z,99.22
2023-03-29T20:38:17.169Z,96.35
2023-03-29T20:40:45.083Z,107.10
2023-03-29T20:43:18.529Z,130.73
2023-03-29T20:45:53.395Z,118.13
2023-03-29T20:48:30.424Z,113.32
2023-03-29T20:50:57.887Z,116.53
2023-03-29T20:53:30.357Z,116.55
2023-03-29T20:55:57.668Z,115.22
2023-03-29T20:58:27.421Z,86.18
2023-03-29T21:00:54.736Z,77.25
2023-03-29T21:03:22.390Z,51.20
2023-03-29T21:05:54.475Z,40.58
2023-03-29T21:08:22.271Z,36.97
2023-03-29T21:10:49.420Z,35.08
2023-03-29T21:13:18.236Z,33.33
2023-03-29T21:15:46.584Z,29.13
2023-03-29T21:18:14.379Z,32.55
2023-03-29T21:20:42.198Z,33.80
2023-03-29T21:23:09.749Z,45.30
2023-03-29T21:25:39.112Z,44.60
2023-03-29T21:28:06.767Z,45.97
2023-03-29T21:30:33.958Z,45.63
2023-03-29T21:33:01.554Z,47.65
2023-03-29T21:35:28.905Z,46.95
2023-03-29T21:37:56.531Z,50.38
2023-03-29T21:40:23.753Z,54.30
2023-03-29T21:42:51.342Z,58.92
2023-03-29T21:45:21.225Z,63.90
2023-03-29T21:47:48.857Z,78.60
2023-03-29T21:50:16.628Z,78.65
2023-03-29T21:52:44.171Z,121.75
2023-03-29T21:55:12.463Z,101.05
2023-03-29T21:57:40.174Z,96.65
2023-03-29T22:00:12.937Z,82.78
2023-03-29T22:02:40.806Z,65.40
2023-03-29T22:05:09.770Z,57.78
2023-03-29T22:07:40.530Z,64.78
2023-03-29T22:10:12.151Z,70.05
2023-03-29T22:12:40.091Z,72.05
2023-03-29T22:15:11.755Z,74.03
2023-03-29T22:17:41.485Z,72.70
2023-03-29T22:20:19.552Z,67.88
2023-03-29T22:22:50.338Z,66.78
2023-03-29T22:25:19.025Z,67.97
2023-03-29T22:27:48.981Z,59.88
2023-03-29T22:30:17.500Z,58.25
2023-03-29T22:32:45.134Z,64.80
2023-03-29T22:35:12.655Z,70.53
2023-03-29T22:37:42.102Z,82.72
2023-03-29T22:40:11.229Z,88.80
2023-03-29T22:42:39.049Z,90.72
2023-03-29T22:45:07.620Z,88.40
2023-03-29T22:47:35.985Z,89.93
2023-03-29T22:50:03.364Z,87.63
2023-03-29T22:52:30.901Z,88.13
2023-03-29T22:54:58.176Z,84.25
2023-03-29T22:57:26.520Z,85.90
2023-03-29T22:59:53.864Z,54.67
2023-03-29T23:02:22.099Z,54.72
2023-03-29T23:04:49.520Z,47.92
2023-03-29T23:07:17.093Z,41.53
2023-03-29T23:09:45.082Z,43.47
2023-03-29T23:12:13.140Z,40.67
2023-03-29T23:14:43.140Z,40.35
2023-03-29T23:17:11.082Z,48.88
2023-03-29T23:19:38.365Z,47.70
2023-03-29T23:22:05.852Z,49.33
2023-03-29T23:24:33.601Z,43.30
2023-03-29T23:27:01.440Z,40.22
2023-03-29T23:29:28.701Z,36.15
2023-03-29T23:31:57.073Z,25.17
2023-03-29T23:34:24.698Z,24.10
2023-03-29T23:36:53.137Z,22.60
2023-03-29T23:39:20.451Z,23.27
2023-03-29T23:41:48.414Z,30.08
2023-03-29T23:44:15.751Z,32.33
2023-03-29T23:46:43.402Z,35.63
2023-03-29T23:49:11.673Z,32.17
2023-03-29T23:52:05.656Z,25.80
2023-03-29T23:54:35.583Z,28.60
2023-03-29T23:57:22.395Z,26.00
